Time;durP1;ratioP1;P1;durP2;ratioP2;P2;SDS_P1;SDS_P2;PMS_P1;PMS_P2;Temp;Humidity;BMP_temperature;BMP_pressure;BME280_temperature;BME280_humidity;BME280_pressure;Samples;Min_cycle;Max_cycle;Signal;HPM_P1;HPM_P2
2022/09/20 00:01:31;;;;;;;6.22;3.22;;;;;;;5.99;100.00;96321.34;4968099;28;24438;-72
2022/09/20 00:03:59;;;;;;;8.18;3.33;;;;;;;5.92;100.00;96316.44;4973780;28;24496;-72
2022/09/20 00:06:27;;;;;;;14.07;3.70;;;;;;;5.85;100.00;96320.97;4967665;28;24503;-72
2022/09/20 00:08:54;;;;;;;5.55;3.53;;;;;;;5.90;100.00;96319.09;4966192;28;24443;-72
2022/09/20 00:11:22;;;;;;;4.18;3.13;;;;;;;5.95;100.00;96318.94;4978181;28;20790;-72
2022/09/20 00:13:50;;;;;;;4.23;3.10;;;;;;;6.01;100.00;96314.44;4974276;28;24437;-72
2022/09/20 00:16:21;;;;;;;5.07;2.92;;;;;;;6.03;100.00;96324.66;4960662;28;20830;-72
2022/09/20 00:18:48;;;;;;;4.10;2.70;;;;;;;5.94;100.00;96320.69;4975172;28;24425;-72
2022/09/20 00:21:16;;;;;;;3.67;2.40;;;;;;;5.93;100.00;96321.59;4969893;28;20773;-72
2022/09/20 00:23:43;;;;;;;4.07;2.25;;;;;;;5.88;100.00;96318.28;4973869;28;24865;-72
2022/09/20 00:26:09;;;;;;;5.25;2.55;;;;;;;5.89;100.00;96319.94;4971409;28;24452;-72
2022/09/20 00:28:36;;;;;;;5.40;2.88;;;;;;;5.91;100.00;96325.06;4971702;28;24445;-72
2022/09/20 00:31:03;;;;;;;6.25;2.60;;;;;;;5.86;100.00;96317.50;4981431;28;24453;-72
2022/09/20 00:36:12;;;;;;;6.00;2.72;;;;;;;5.93;100.00;96311.31;4969161;28;24780;-72
2022/09/20 00:38:38;;;;;;;3.20;1.83;;;;;;;5.93;100.00;96316.44;4972249;28;24437;-72
2022/09/20 00:41:05;;;;;;;1.92;1.50;;;;;;;5.91;100.00;96310.47;4985273;28;24437;-72
2022/09/20 00:43:36;;;;;;;2.13;1.50;;;;;;;5.93;100.00;96319.00;4975138;28;24441;-72
2022/09/20 00:46:04;;;;;;;15.55;1.45;;;;;;;5.65;100.00;96318.25;4981529;28;24425;-72
2022/09/20 00:48:33;;;;;;;33.60;1.60;;;;;;;5.22;100.00;96317.13;4980122;28;25348;-72
2022/09/20 00:51:06;;;;;;;12.15;1.10;;;;;;;5.21;100.00;96315.47;4981418;28;24464;-72
2022/09/20 00:53:36;;;;;;;5.10;1.08;;;;;;;5.34;100.00;96312.44;4981182;28;24445;-72
2022/09/20 00:56:06;;;;;;;9.35;1.10;;;;;;;5.41;100.00;96301.94;4977334;28;24441;-72
2022/09/20 00:58:38;;;;;;;1.20;0.90;;;;;;;5.49;100.00;96311.09;4967849;28;24446;-72
2022/09/20 01:01:05;;;;;;;5.00;0.90;;;;;;;5.49;100.00;96315.38;4983311;28;24440;-72
2022/09/20 01:03:36;;;;;;;14.23;1.10;;;;;;;5.46;100.00;96315.47;4977189;28;24994;-72
2022/09/20 01:06:06;;;;;;;3.95;1.00;;;;;;;5.49;100.00;96310.25;4969586;28;24536;-72
2022/09/20 01:08:36;;;;;;;13.30;1.00;;;;;;;5.23;100.00;96313.69;4968665;28;24438;-72
2022/09/20 01:11:02;;;;;;;8.98;1.08;;;;;;;5.13;100.00;96313.16;4986759;28;24855;-71
2022/09/20 01:13:29;;;;;;;14.02;1.08;;;;;;;5.10;100.00;96315.81;4969111;28;24465;-72
2022/09/20 01:15:57;;;;;;;12.73;1.10;;;;;;;5.12;100.00;96318.31;4979262;28;24855;-72
2022/09/20 01:18:25;;;;;;;2.85;0.70;;;;;;;5.30;100.00;96312.56;4972632;28;24542;-72
2022/09/20 01:20:53;;;;;;;2.65;0.77;;;;;;;5.33;100.00;96312.47;4987892;28;24429;-72
2022/09/20 01:23:46;;;;;;;2.28;1.00;;;;;;;5.40;100.00;96313.94;4971122;28;25026;-72
2022/09/20 01:26:45;;;;;;;12.13;1.30;;;;;;;5.34;100.00;96319.31;4974645;28;25061;-72
2022/09/20 01:29:25;;;;;;;1.67;1.00;;;;;;;5.26;100.00;96309.25;4978410;28;25014;-72
2022/09/20 01:31:54;;;;;;;1.55;0.77;;;;;;;5.26;100.00;96313.56;4978080;28;24974;-72
2022/09/20 01:34:27;;;;;;;3.70;0.80;;;;;;;5.26;100.00;96311.84;4970840;28;24438;-72
2022/09/20 01:36:59;;;;;;;5.82;1.00;;;;;;;5.24;100.00;96311.06;4966149;28;24453;-72
2022/09/20 01:39:33;;;;;;;2.05;0.75;;;;;;;5.17;100.00;96311.31;4973133;28;24444;-72
2022/09/20 01:42:04;;;;;;;1.25;0.70;;;;;;;5.21;100.00;96312.88;4978716;28;24436;-72
2022/09/20 01:44:38;;;;;;;3.10;0.60;;;;;;;5.33;100.00;96312.47;4977558;28;24440;-72
2022/09/20 01:47:15;;;;;;;1.70;0.60;;;;;;;5.39;100.00;96307.13;4980021;28;24490;-72
2022/09/20 01:49:58;;;;;;;1.10;0.50;;;;;;;5.43;100.00;96311.28;4984672;28;24448;-72
2022/09/20 01:52:51;;;;;;;1.60;0.80;;;;;;;5.48;100.00;96305.97;4968488;28;24476;-72
2022/09/20 01:55:41;;;;;;;7.03;1.10;;;;;;;5.49;100.00;96300.81;4979400;28;24437;-72
2022/09/20 01:58:41;;;;;;;6.90;0.80;;;;;;;5.38;100.00;96296.91;4972107;28;25057;-71
2022/09/20 02:01:38;;;;;;;5.03;0.80;;;;;;;5.46;100.00;96300.91;4980386;28;24982;-71
2022/09/20 02:04:30;;;;;;;2.60;0.90;;;;;;;5.53;100.00;96304.94;4974879;28;24445;-71
2022/09/20 02:07:26;;;;;;;4.80;0.93;;;;;;;5.54;100.00;96291.19;4973551;28;24444;-72
2022/09/20 02:10:34;;;;;;;4.90;1.05;;;;;;;5.37;100.00;96295.22;4981814;28;24444;-72
2022/09/20 02:13:04;;;;;;;1.80;0.90;;;;;;;5.41;100.00;96295.06;4970384;28;24447;-72
2022/09/20 02:15:50;;;;;;;1.70;1.08;;;;;;;5.51;100.00;96290.47;4966791;28;24464;-72
2022/09/20 02:18:36;;;;;;;1.67;1.08;;;;;;;5.53;100.00;96284.41;4977244;28;24457;-72
2022/09/20 02:21:11;;;;;;;2.72;0.90;;;;;;;5.50;100.00;96281.09;4977444;28;24433;-72
2022/09/20 02:23:48;;;;;;;4.82;0.98;;;;;;;5.54;100.00;96280.91;4978274;28;24433;-72
2022/09/20 02:26:29;;;;;;;2.13;0.90;;;;;;;5.53;100.00;96286.13;4964453;28;24821;-72
2022/09/20 02:29:06;;;;;;;1.00;0.70;;;;;;;5.51;100.00;96286.16;4973445;28;21309;-72
2022/09/20 02:31:53;;;;;;;1.10;0.82;;;;;;;5.42;100.00;96289.06;4979167;28;25021;-72
2022/09/20 02:34:39;;;;;;;2.22;1.00;;;;;;;5.43;100.00;96290.72;4968983;28;24508;-71
2022/09/20 02:37:24;;;;;;;3.20;1.63;;;;;;;5.32;100.00;96288.53;4983300;28;24460;-72
2022/09/20 02:40:03;;;;;;;1.42;1.10;;;;;;;5.07;100.00;96301.31;4980049;28;24429;-72
2022/09/20 02:42:38;;;;;;;3.70;1.13;;;;;;;4.79;100.00;96296.25;4974928;28;25025;-72
2022/09/20 02:45:13;;;;;;;1.65;0.90;;;;;;;4.80;100.00;96294.53;4970900;28;24463;-72
2022/09/20 02:47:43;;;;;;;0.75;0.75;;;;;;;4.73;100.00;96291.31;4974548;28;24991;-72
2022/09/20 02:50:32;;;;;;;1.13;1.00;;;;;;;4.76;100.00;96295.50;4982126;28;24433;-72
2022/09/20 02:53:17;;;;;;;1.48;1.02;;;;;;;4.75;100.00;96289.56;4963899;28;24445;-71
2022/09/20 02:55:50;;;;;;;1.20;0.95;;;;;;;4.70;100.00;96296.53;4978463;28;24437;-72
2022/09/20 02:58:29;;;;;;;1.70;0.93;;;;;;;4.43;100.00;96300.78;4979837;28;24441;-71
2022/09/20 03:01:03;;;;;;;1.48;0.90;;;;;;;4.44;100.00;96310.16;4979106;28;24441;-71
2022/09/20 03:03:40;;;;;;;1.23;0.85;;;;;;;4.61;100.00;96307.94;4975030;28;24804;-71
2022/09/20 03:06:19;;;;;;;2.30;1.10;;;;;;;4.60;100.00;96303.69;4973755;28;24444;-72
2022/09/20 03:08:55;;;;;;;0.90;0.70;;;;;;;4.57;100.00;96303.78;4966134;28;24440;-72
2022/09/20 03:11:29;;;;;;;0.90;0.68;;;;;;;4.60;100.00;96313.13;4970158;28;24549;-71
2022/09/20 03:14:11;;;;;;;1.30;0.90;;;;;;;4.66;100.00;96305.22;4966665;28;24445;-71
2022/09/20 03:16:51;;;;;;;1.60;1.00;;;;;;;4.70;100.00;96308.53;4972019;28;24472;-72
2022/09/20 03:19:32;;;;;;;1.90;1.70;;;;;;;4.81;100.00;96306.47;4973329;28;24440;-72
2022/09/20 03:22:07;;;;;;;3.15;2.05;;;;;;;4.92;100.00;96303.56;4965445;28;24436;-71
2022/09/20 03:24:43;;;;;;;3.15;2.50;;;;;;;4.99;100.00;96308.44;4971168;28;24440;-72
2022/09/20 03:27:19;;;;;;;3.17;1.92;;;;;;;5.08;100.00;96307.31;4976693;28;24442;-72
2022/09/20 03:29:58;;;;;;;2.80;1.95;;;;;;;5.13;100.00;96302.03;4977010;28;24799;-72
2022/09/20 03:32:40;;;;;;;2.40;1.60;;;;;;;5.22;100.00;96305.13;4974485;28;24449;-71
2022/09/20 03:35:23;;;;;;;1.48;1.38;;;;;;;5.30;100.00;96302.28;4969202;28;24799;-71
2022/09/20 03:38:07;;;;;;;6.65;1.52;;;;;;;5.16;100.00;96310.47;4979287;28;24452;-71
2022/09/20 03:41:04;;;;;;;26.40;2.10;;;;;;;4.73;100.00;96311.00;4969323;28;24443;-72
2022/09/20 03:43:44;;;;;;;3.63;1.00;;;;;;;4.72;100.00;96307.59;4977315;28;24735;-72
2022/09/20 03:46:17;;;;;;;3.90;1.20;;;;;;;4.88;100.00;96310.53;4978437;28;24448;-72
2022/09/20 03:49:19;;;;;;;2.70;1.15;;;;;;;5.01;100.00;96308.41;4966589;28;24437;-72
2022/09/20 03:51:56;;;;;;;1.90;1.30;;;;;;;4.99;100.00;96317.88;4983936;28;25036;-71
2022/09/20 03:54:53;;;;;;;2.22;1.20;;;;;;;5.02;100.00;96313.47;4968452;28;24517;-71
2022/09/20 03:57:46;;;;;;;2.65;1.50;;;;;;;5.11;100.00;96322.59;4965121;28;24457;-71
2022/09/20 04:00:26;;;;;;;2.38;1.25;;;;;;;5.19;100.00;96330.94;4977344;28;24437;-71
2022/09/20 04:03:03;;;;;;;1.90;1.10;;;;;;;5.25;100.00;96327.31;4973750;28;24457;-71
2022/09/20 04:05:38;;;;;;;1.95;0.98;;;;;;;5.33;100.00;96323.59;4961854;28;24437;-71
2022/09/20 04:08:15;;;;;;;2.17;1.08;;;;;;;5.40;100.00;96325.97;4975806;28;24445;-72
2022/09/20 04:10:54;;;;;;;4.03;1.08;;;;;;;5.44;100.00;96325.78;4969561;28;24434;-72
2022/09/20 04:13:34;;;;;;;1.27;1.00;;;;;;;5.50;100.00;96319.63;4975829;28;24444;-72
2022/09/20 04:16:14;;;;;;;2.00;1.30;;;;;;;5.57;100.00;96315.97;4967529;28;25006;-72
2022/09/20 04:18:46;;;;;;;1.50;1.00;;;;;;;5.59;100.00;96319.28;4964168;28;24452;-72
2022/09/20 04:21:22;;;;;;;1.10;1.00;;;;;;;5.49;100.00;96323.09;4975286;28;24799;-71
2022/09/20 04:23:59;;;;;;;2.17;0.93;;;;;;;5.59;100.00;96327.84;4979210;28;24441;-72
2022/09/20 04:26:29;;;;;;;2.90;0.90;;;;;;;5.63;100.00;96320.03;4966548;28;24472;-72
2022/09/20 04:29:02;;;;;;;2.00;0.70;;;;;;;5.59;100.00;96320.13;4974496;28;24445;-71
2022/09/20 04:31:40;;;;;;;2.00;1.15;;;;;;;5.53;100.00;96328.06;4985278;28;24471;-72
2022/09/20 04:34:16;;;;;;;1.00;0.90;;;;;;;5.46;100.00;96330.91;4960703;28;25218;-72
2022/09/20 04:37:01;;;;;;;1.67;1.10;;;;;;;5.51;100.00;96323.88;4979732;28;24440;-72
2022/09/20 04:39:42;;;;;;;4.22;1.83;;;;;;;5.45;100.00;96322.34;4961361;28;24464;-71
2022/09/20 04:42:50;;;;;;;10.77;2.90;;;;;;;5.49;100.00;96323.94;4983083;28;25021;-71
2022/09/20 04:45:44;;;;;;;13.02;5.05;;;;;;;5.63;100.00;96332.88;4974778;28;24442;-72
2022/09/20 04:48:38;;;;;;;11.60;4.50;;;;;;;5.46;100.00;96344.56;4967487;28;24816;-71
2022/09/20 04:51:45;;;;;;;5.53;2.70;;;;;;;5.41;100.00;96345.59;4981605;28;24569;-72
2022/09/20 04:54:52;;;;;;;4.05;1.30;;;;;;;5.58;100.00;96351.03;4969449;28;24444;-72
2022/09/20 04:57:40;;;;;;;1.55;0.93;;;;;;;5.66;100.00;96351.59;4980753;28;24444;-72
2022/09/20 05:00:09;;;;;;;1.00;0.70;;;;;;;5.70;100.00;96348.03;4966545;28;24489;-71
2022/09/20 05:03:21;;;;;;;2.00;1.40;;;;;;;5.73;100.00;96345.38;4981930;28;20841;-72
2022/09/20 05:06:10;;;;;;;1.60;1.15;;;;;;;5.73;100.00;96350.50;4924231;28;24441;-71
2022/09/20 05:09:20;;;;;;;2.58;1.02;;;;;;;5.80;100.00;96353.72;4970459;28;24437;-71
2022/09/20 05:12:13;;;;;;;1.45;1.20;;;;;;;5.79;100.00;96346.91;4980316;28;25109;-72
2022/09/20 05:15:20;;;;;;;2.83;1.20;;;;;;;5.73;100.00;96360.78;4974991;28;24934;-72
2022/09/20 05:18:09;;;;;;;2.40;1.60;;;;;;;5.75;100.00;96359.00;4964865;28;24458;-71
2022/09/20 05:20:49;;;;;;;1.52;0.90;;;;;;;5.81;100.00;96360.53;4981746;28;25021;-71
2022/09/20 05:23:43;;;;;;;4.55;1.20;;;;;;;5.79;100.00;96359.75;4983394;28;24441;-72
2022/09/20 05:26:14;;;;;;;1.48;0.95;;;;;;;5.80;100.00;96358.84;4980015;28;24444;-72
2022/09/20 05:28:50;;;;;;;2.50;1.25;;;;;;;5.83;100.00;96369.88;4968463;28;24445;-72
2022/09/20 05:31:27;;;;;;;4.13;1.35;;;;;;;5.73;100.00;96367.66;4978730;28;24457;-72
2022/09/20 05:34:00;;;;;;;2.42;1.40;;;;;;;5.77;100.00;96364.94;4974290;28;24544;-72
2022/09/20 05:36:36;;;;;;;3.88;1.20;;;;;;;5.77;100.00;96367.50;4977083;28;24452;-71
2022/09/20 05:39:18;;;;;;;2.67;1.13;;;;;;;5.74;100.00;96371.91;4974546;28;24534;-71
2022/09/20 05:41:53;;;;;;;2.50;1.23;;;;;;;5.83;100.00;96372.44;4968258;28;24448;-72
2022/09/20 05:44:29;;;;;;;1.27;0.97;;;;;;;5.89;100.00;96378.25;4970105;28;24997;-71
2022/09/20 05:47:08;;;;;;;1.48;1.10;;;;;;;5.93;100.00;96380.72;4977717;28;24452;-71
2022/09/20 05:49:46;;;;;;;2.25;1.20;;;;;;;5.91;100.00;96382.44;4963357;28;24441;-71
2022/09/20 05:52:28;;;;;;;3.33;1.27;;;;;;;6.02;100.00;96376.97;4970312;28;24461;-71
2022/09/20 05:55:15;;;;;;;2.20;1.20;;;;;;;6.06;100.00;96386.25;4981832;28;25065;-72
2022/09/20 05:58:00;;;;;;;4.35;1.42;;;;;;;6.07;100.00;96388.75;4970559;28;21180;-71
2022/09/20 06:00:32;;;;;;;3.07;1.50;;;;;;;6.19;100.00;96389.22;4977581;28;25121;-72
2022/09/20 06:03:09;;;;;;;3.80;1.50;;;;;;;6.31;100.00;96386.22;4971945;28;24460;-72
2022/09/20 06:05:45;;;;;;;3.38;1.52;;;;;;;6.44;100.00;96382.28;4971658;28;24998;-71
2022/09/20 06:08:34;;;;;;;2.20;1.30;;;;;;;6.60;100.00;96392.03;4986636;28;24491;-74
2022/09/20 06:11:18;;;;;;;4.15;1.70;;;;;;;6.52;100.00;96388.00;4978081;28;24452;-75
2022/09/20 06:14:14;;;;;;;3.28;2.05;;;;;;;6.55;100.00;96387.06;4981703;28;25061;-75
2022/09/20 06:16:47;;;;;;;3.67;1.85;;;;;;;6.50;100.00;96389.81;4967825;28;20840;-74
2022/09/20 06:19:22;;;;;;;3.00;1.95;;;;;;;6.58;100.00;96386.09;4969628;28;24425;-74
2022/09/20 06:21:52;;;;;;;4.18;2.13;;;;;;;6.67;100.00;96388.31;4970203;28;24430;-74
2022/09/20 06:24:31;;;;;;;3.60;2.50;;;;;;;6.76;100.00;96386.25;4970597;28;24986;-74
2022/09/20 06:27:01;;;;;;;3.05;2.00;;;;;;;6.81;100.00;96390.38;4976604;28;24800;-74
2022/09/20 06:29:32;;;;;;;2.55;2.00;;;;;;;6.77;100.00;96390.50;4973579;28;25013;-73
2022/09/20 06:32:01;;;;;;;4.43;2.15;;;;;;;6.67;100.00;96388.31;4976543;28;20784;-68
2022/09/20 06:34:29;;;;;;;3.23;2.10;;;;;;;6.72;100.00;96386.44;4983312;28;20823;-72
2022/09/20 06:42:44;;;;;;;3.20;1.77;;;;;;;6.91;100.00;96377.09;4970224;28;20673;-73
2022/09/20 06:45:10;;;;;;;10.95;1.75;;;;;;;6.76;100.00;96388.00;4977866;28;24514;-73
2022/09/20 06:47:37;;;;;;;2.58;1.67;;;;;;;6.80;100.00;96389.56;4970745;28;24445;-73
2022/09/20 06:50:06;;;;;;;3.90;1.70;;;;;;;6.99;100.00;96398.25;4971304;28;24437;-74
2022/09/20 06:52:34;;;;;;;4.10;2.08;;;;;;;7.12;100.00;96392.59;4976591;28;20793;-73
2022/09/20 06:55:07;;;;;;;3.88;2.20;;;;;;;7.20;100.00;96393.16;4971212;28;24438;-73
2022/09/20 06:57:37;;;;;;;4.32;2.40;;;;;;;7.35;100.00;96399.44;4976710;28;24488;-73
2022/09/20 07:00:05;;;;;;;4.00;2.50;;;;;;;7.54;100.00;96389.25;4974689;28;24491;-73
2022/09/20 07:02:32;;;;;;;11.03;2.30;;;;;;;7.83;100.00;96394.03;4976186;28;25119;-72
2022/09/20 07:04:58;;;;;;;3.95;2.08;;;;;;;8.19;100.00;96395.91;4973844;28;20783;-73
2022/09/20 07:07:26;;;;;;;3.20;1.70;;;;;;;8.55;100.00;96390.09;4976981;28;20781;-73
2022/09/20 07:09:52;;;;;;;4.32;2.10;;;;;;;8.85;100.00;96386.09;4974885;28;24527;-72
2022/09/20 07:12:20;;;;;;;3.87;1.70;;;;;;;9.23;100.00;96391.22;4977113;28;24461;-72
2022/09/20 07:14:46;;;;;;;4.97;1.83;;;;;;;9.37;100.00;96391.41;4975535;28;20925;-72
2022/09/20 07:17:13;;;;;;;4.40;1.85;;;;;;;9.55;100.00;96405.19;4978142;28;24529;-72
2022/09/20 07:19:40;;;;;;;4.70;1.73;;;;;;;9.79;100.00;96395.41;4973169;28;20774;-72
2022/09/20 07:22:06;;;;;;;4.60;1.80;;;;;;;10.10;100.00;96401.63;4979280;28;24433;-73
2022/09/20 07:24:34;;;;;;;5.65;2.00;;;;;;;10.41;100.00;96401.75;4972336;28;20782;-74
2022/09/20 07:27:04;;;;;;;4.93;2.13;;;;;;;10.58;100.00;96405.22;4970562;28;20777;-72
2022/09/20 07:29:31;;;;;;;3.33;1.67;;;;;;;10.79;100.00;96396.31;4972470;28;20820;-71
2022/09/20 07:31:57;;;;;;;3.88;2.13;;;;;;;10.66;100.00;96403.06;4973102;28;25085;-71
2022/09/20 07:34:24;;;;;;;6.03;2.10;;;;;;;10.51;100.00;96403.88;4971712;28;25221;-72
2022/09/20 07:36:51;;;;;;;4.17;2.23;;;;;;;10.75;100.00;96405.16;4974587;28;24442;-72
2022/09/20 07:39:17;;;;;;;7.00;2.20;;;;;;;11.00;100.00;96402.06;4971244;28;24966;-72
2022/09/20 07:41:47;;;;;;;4.83;2.30;;;;;;;11.11;100.00;96404.91;4976055;28;24527;-72
2022/09/20 07:44:24;;;;;;;11.13;2.20;;;;;;;11.09;100.00;96406.78;4972595;28;24495;-71
2022/09/20 07:46:50;;;;;;;8.85;2.08;;;;;;;11.24;100.00;96410.28;4972970;28;24894;-72
2022/09/20 07:49:17;;;;;;;7.93;2.15;;;;;;;11.82;100.00;96419.13;4976718;28;24482;-72
2022/09/20 07:51:44;;;;;;;9.07;2.08;;;;;;;11.45;100.00;96425.56;4989479;28;24501;-73
2022/09/20 07:54:10;;;;;;;8.70;1.75;;;;;;;10.97;100.00;96425.56;4981409;28;24464;-72
2022/09/20 07:56:37;;;;;;;9.68;2.00;;;;;;;10.71;100.00;96418.34;4976560;28;24524;-72
2022/09/20 07:59:05;;;;;;;5.38;1.48;;;;;;;11.17;100.00;96421.91;4982076;28;24975;-73
2022/09/20 08:01:31;;;;;;;7.22;1.83;;;;;;;11.31;97.84;96423.72;4976171;28;24526;-72
2022/09/20 08:03:58;;;;;;;5.60;1.98;;;;;;;11.38;100.00;96423.31;4976699;28;24429;-73
2022/09/20 08:06:25;;;;;;;9.40;1.83;;;;;;;11.25;100.00;96430.09;4975256;28;24862;-73
2022/09/20 08:08:53;;;;;;;8.00;2.03;;;;;;;11.13;100.00;96433.38;4983693;28;25065;-73
2022/09/20 08:11:24;;;;;;;7.97;1.85;;;;;;;11.66;100.00;96436.50;4975610;28;24442;-71
2022/09/20 08:13:52;;;;;;;9.10;1.90;;;;;;;12.12;100.00;96442.50;4975972;28;24850;-72
2022/09/20 08:16:21;;;;;;;10.45;2.22;;;;;;;11.92;95.10;96448.84;4973782;28;24607;-72
2022/09/20 08:18:49;;;;;;;9.40;2.10;;;;;;;12.14;96.00;96453.66;4974862;28;24464;-71
2022/09/20 08:21:15;;;;;;;8.32;2.08;;;;;;;12.40;91.78;96457.31;4974297;28;24452;-71
2022/09/20 08:23:44;;;;;;;4.85;1.50;;;;;;;11.99;91.90;96449.34;4983353;28;24963;-70
2022/09/20 08:26:13;;;;;;;5.28;1.80;;;;;;;12.31;99.28;96458.72;4980169;28;24436;-71
2022/09/20 08:28:40;;;;;;;7.35;1.60;;;;;;;12.07;90.35;96466.16;4981452;28;25006;-72
2022/09/20 08:31:08;;;;;;;5.82;1.70;;;;;;;11.81;91.08;96467.59;4976407;28;24441;-68
2022/09/20 08:33:37;;;;;;;5.57;1.65;;;;;;;11.54;90.71;96456.19;4980914;28;24456;-72
2022/09/20 08:36:04;;;;;;;9.40;1.90;;;;;;;11.95;92.07;96453.88;4982832;28;24440;-72
2022/09/20 08:38:31;;;;;;;14.32;1.88;;;;;;;12.41;93.66;96452.97;4988305;28;24432;-72
2022/09/20 08:41:03;;;;;;;6.88;1.60;;;;;;;12.40;95.56;96454.72;4985261;28;24457;-72
2022/09/20 08:43:35;;;;;;;6.30;1.85;;;;;;;12.27;84.08;96459.81;4987976;28;24429;-73
2022/09/20 08:46:04;;;;;;;6.80;2.00;;;;;;;12.60;88.13;96448.31;4987702;28;24444;-72
2022/09/20 08:48:33;;;;;;;5.95;1.45;;;;;;;12.18;84.63;96451.72;4985139;28;24433;-72
2022/09/20 08:51:02;;;;;;;10.43;1.92;;;;;;;12.37;85.20;96457.50;4981499;28;24499;-72
2022/09/20 08:53:30;;;;;;;6.70;1.58;;;;;;;12.47;86.20;96460.41;4972535;28;24449;-72
2022/09/20 08:55:58;;;;;;;7.72;1.42;;;;;;;12.28;83.13;96448.50;4976324;28;24429;-72
2022/09/20 08:58:25;;;;;;;3.58;1.50;;;;;;;12.47;82.01;96448.25;4980577;28;24527;-72
2022/09/20 09:00:52;;;;;;;6.55;1.80;;;;;;;12.69;78.82;96450.41;4986662;28;24444;-72
2022/09/20 09:03:19;;;;;;;5.17;1.37;;;;;;;12.82;82.79;96443.50;4985010;28;24440;-72
2022/09/20 09:05:47;;;;;;;6.13;1.55;;;;;;;13.39;78.54;96437.44;4985088;28;24433;-70
2022/09/20 09:08:18;;;;;;;4.22;1.30;;;;;;;13.24;75.70;96441.84;4981250;28;24460;-70
2022/09/20 09:10:52;;;;;;;5.88;1.67;;;;;;;12.99;77.80;96441.66;4982358;28;24440;-72
2022/09/20 09:13:25;;;;;;;6.07;1.90;;;;;;;12.54;75.44;96443.53;4981675;28;25006;-73
2022/09/20 09:15:56;;;;;;;6.90;1.48;;;;;;;12.51;76.92;96446.28;4976542;28;24434;-72
2022/09/20 09:18:33;;;;;;;3.63;1.20;;;;;;;11.67;77.55;96449.38;4976600;28;25059;-73
2022/09/20 09:21:02;;;;;;;6.15;1.30;;;;;;;11.73;79.04;96445.63;4977156;28;24895;-72
2022/09/20 09:23:36;;;;;;;7.18;1.20;;;;;;;12.54;78.98;96440.91;4976326;28;25037;-73
2022/09/20 09:26:04;;;;;;;5.47;1.23;;;;;;;12.70;84.88;96441.66;4977311;28;24429;-73
2022/09/20 09:28:35;;;;;;;11.25;2.00;;;;;;;12.25;81.14;96443.47;4985896;28;24461;-73
2022/09/20 09:31:14;;;;;;;3.47;1.40;;;;;;;12.58;80.18;96448.44;4979821;28;24988;-73
2022/09/20 09:33:43;;;;;;;6.65;1.30;;;;;;;12.71;83.07;96445.91;4985858;28;25129;-72
2022/09/20 09:36:14;;;;;;;4.57;1.23;;;;;;;12.48;79.74;96451.66;4977749;28;24484;-74
2022/09/20 09:38:44;;;;;;;9.55;1.50;;;;;;;12.68;81.52;96445.28;4972838;28;24488;-73
2022/09/20 09:41:25;;;;;;;10.98;1.58;;;;;;;12.67;80.28;96444.44;4972548;28;24977;-73
2022/09/20 09:43:59;;;;;;;4.80;1.40;;;;;;;12.95;76.47;96432.38;4973072;28;24512;-73
2022/09/20 09:46:27;;;;;;;6.27;1.50;;;;;;;13.47;81.09;96432.56;4959484;28;24496;-73
2022/09/20 09:49:06;;;;;;;3.72;1.30;;;;;;;13.32;74.20;96443.94;4981043;28;24433;-72
2022/09/20 09:51:33;;;;;;;6.57;1.30;;;;;;;12.93;74.98;96434.22;4992125;28;24422;-73
2022/09/20 09:54:02;;;;;;;4.85;1.48;;;;;;;12.29;76.06;96434.56;4977006;28;24484;-73
2022/09/20 09:56:50;;;;;;;7.20;1.40;;;;;;;11.69;77.18;96431.16;4972680;28;24437;-72
2022/09/20 09:59:48;;;;;;;5.93;1.30;;;;;;;11.60;79.34;96432.47;4972884;28;24429;-72
2022/09/20 10:02:33;;;;;;;4.13;1.38;;;;;;;11.84;80.86;96432.91;4980226;28;25006;-72
2022/09/20 10:05:09;;;;;;;8.30;1.75;;;;;;;11.63;79.96;96434.91;4972321;28;24445;-72
2022/09/20 10:07:45;;;;;;;3.15;1.13;;;;;;;11.53;79.20;96434.59;4973019;28;24473;-72
2022/09/20 10:10:25;;;;;;;7.50;1.30;;;;;;;11.57;81.07;96435.28;4973045;28;24460;-72
2022/09/20 10:13:07;;;;;;;7.32;1.20;;;;;;;11.72;76.42;96434.41;4972129;28;24449;-72
2022/09/20 10:15:41;;;;;;;5.35;1.20;;;;;;;11.94;77.46;96433.19;4972474;28;24875;-72
2022/09/20 10:18:31;;;;;;;3.08;1.20;;;;;;;11.98;77.16;96434.72;4971775;28;24809;-72
2022/09/20 10:21:18;;;;;;;4.72;1.25;;;;;;;11.73;77.53;96427.44;4972163;28;24512;-72
2022/09/20 10:23:56;;;;;;;7.97;1.88;;;;;;;11.71;78.07;96429.28;4971964;28;24987;-72
2022/09/20 10:26:38;;;;;;;4.00;1.60;;;;;;;11.78;80.02;96430.59;4970759;28;24437;-72
2022/09/20 10:29:12;;;;;;;3.83;1.30;;;;;;;11.82;77.76;96439.88;4971198;28;24530;-72
2022/09/20 10:31:56;;;;;;;6.40;1.35;;;;;;;12.34;76.90;96445.50;4966456;28;24442;-72
2022/09/20 10:34:49;;;;;;;7.40;1.50;;;;;;;11.97;77.99;96435.59;5115640;27;24405;-73
2022/09/20 10:37:22;;;;;;;3.47;1.13;;;;;;;11.90;78.79;96434.28;5094763;28;24434;-73
2022/09/20 10:39:56;;;;;;;4.72;1.02;;;;;;;12.44;80.81;96439.78;5094556;28;24436;-73
2022/09/20 10:45:25;;;;;;;7.60;1.35;;;;;;;12.04;77.17;96437.75;5090237;28;24418;-73
2022/09/20 10:47:58;;;;;;;3.88;1.27;;;;;;;12.40;82.62;96449.53;5105153;28;24476;-73
2022/09/20 10:50:37;;;;;;;3.42;1.00;;;;;;;12.42;81.84;96436.44;5099114;28;24524;-73
2022/09/20 10:53:24;;;;;;;3.30;1.07;;;;;;;12.24;80.25;96440.97;5088177;28;24540;-73
2022/09/20 10:56:03;;;;;;;2.47;1.17;;;;;;;12.11;77.87;96443.44;5102701;28;24620;-73
2022/09/20 10:58:53;;;;;;;3.97;1.10;;;;;;;12.40;81.96;96449.53;5091966;28;24438;-72
2022/09/20 11:01:28;;;;;;;3.67;1.08;;;;;;;12.12;78.69;96447.69;5103993;28;24445;-72
2022/09/20 11:04:18;;;;;;;4.38;1.27;;;;;;;12.10;78.83;96447.81;5089246;28;24427;-73
2022/09/20 11:06:53;;;;;;;3.65;1.15;;;;;;;12.17;79.29;96455.25;5089223;28;24446;-73
2022/09/20 11:09:24;;;;;;;4.85;1.33;;;;;;;12.19;77.16;96451.63;5096453;28;24988;-72
2022/09/20 11:11:57;;;;;;;3.50;0.93;;;;;;;12.08;76.96;96451.41;5094040;28;24533;-73
2022/09/20 11:14:31;;;;;;;11.73;1.52;;;;;;;11.99;80.65;96449.34;5084508;28;24446;-72
2022/09/20 11:17:02;;;;;;;2.10;1.00;;;;;;;11.96;78.00;96455.53;5106513;28;24442;-72
2022/09/20 11:19:33;;;;;;;5.83;1.27;;;;;;;12.00;77.62;96454.44;5102961;28;24522;-73
2022/09/20 11:22:07;;;;;;;6.60;1.05;;;;;;;11.82;76.02;96451.09;5106626;28;24444;-72
2022/09/20 11:24:40;;;;;;;5.82;1.42;;;;;;;11.88;75.74;96456.91;5104558;28;24924;-72
2022/09/20 11:27:12;;;;;;;3.55;1.17;;;;;;;12.15;76.34;96454.47;5095365;28;24438;-74
2022/09/20 11:29:45;;;;;;;5.32;1.10;;;;;;;12.30;78.89;96454.41;5099312;28;24437;-72
2022/09/20 11:32:17;;;;;;;13.55;1.15;;;;;;;12.39;73.07;96455.66;5091924;28;24434;-71
2022/09/20 11:34:54;;;;;;;3.70;1.40;;;;;;;12.49;72.97;96450.72;5122811;28;24429;-70
2022/09/20 11:37:27;;;;;;;4.28;1.30;;;;;;;12.24;73.56;96447.00;5120442;28;25009;-73
2022/09/20 11:39:55;;;;;;;5.68;1.52;;;;;;;12.23;73.58;96457.47;5115558;28;24503;-72
2022/09/20 11:42:25;;;;;;;5.85;1.17;;;;;;;12.06;73.39;96454.09;5116969;28;24448;-72
2022/09/20 11:44:53;;;;;;;5.13;1.30;;;;;;;12.21;74.61;96459.34;5118998;28;24506;-72
2022/09/20 11:47:24;;;;;;;9.40;1.50;;;;;;;12.16;73.76;96445.75;5099905;28;24446;-72
2022/09/20 11:50:17;;;;;;;2.33;1.13;;;;;;;12.75;72.81;96437.00;5108793;28;24433;-72
2022/09/20 11:52:59;;;;;;;4.45;1.25;;;;;;;12.34;73.30;96445.50;5108928;28;24449;-72
2022/09/20 11:55:37;;;;;;;4.22;1.27;;;;;;;12.52;72.42;96443.59;5100254;28;24429;-72
2022/09/20 11:58:06;;;;;;;4.15;1.20;;;;;;;12.56;72.46;96449.44;5110449;28;25001;-73
2022/09/20 12:00:35;;;;;;;5.65;1.83;;;;;;;12.48;75.71;96442.09;5106349;28;25036;-72
2022/09/20 12:03:05;;;;;;;6.53;1.23;;;;;;;12.26;73.10;96447.72;5099509;28;24424;-72
2022/09/20 12:05:34;;;;;;;6.22;1.33;;;;;;;12.13;73.32;96448.56;5099905;28;24438;-72
2022/09/20 12:08:05;;;;;;;5.30;1.42;;;;;;;12.11;74.94;96446.88;5091426;28;24445;-71
2022/09/20 12:10:34;;;;;;;5.05;1.38;;;;;;;12.08;74.52;96439.25;5107390;28;24436;-72
2022/09/20 12:13:02;;;;;;;4.57;1.23;;;;;;;12.05;75.86;96438.59;5111670;28;24454;-71
2022/09/20 12:15:32;;;;;;;3.30;1.03;;;;;;;12.16;77.32;96427.59;5108748;28;24430;-72
2022/09/20 12:18:07;;;;;;;4.90;1.15;;;;;;;12.13;76.31;96432.97;5110703;28;24440;-72
2022/09/20 12:21:06;;;;;;;5.47;1.30;;;;;;;12.32;75.32;96439.59;5105988;28;24476;-72
2022/09/20 12:24:09;;;;;;;3.55;1.20;;;;;;;12.57;77.74;96427.75;5098219;28;24429;-72